createdAt,value
2018-01-13T00:00:27.021Z,99.90
2018-01-13T00:02:55.366Z,99.90
2018-01-13T00:05:23.810Z,99.90
2018-01-13T00:07:51.338Z,99.90
2018-01-13T00:10:19.922Z,99.90
2018-01-13T00:12:47.509Z,99.90
2018-01-13T00:15:16.913Z,99.90
2018-01-13T00:17:46.988Z,99.90
2018-01-13T00:20:17.586Z,99.90
2018-01-13T00:22:47.317Z,99.90
2018-01-13T00:25:14.945Z,99.90
2018-01-13T00:27:43.422Z,99.90
2018-01-13T00:30:11.765Z,99.90
2018-01-13T00:32:40.707Z,99.90
2018-01-13T00:35:08.291Z,99.90
2018-01-13T00:37:37.565Z,99.90
2018-01-13T00:40:11.715Z,99.90
2018-01-13T00:42:39.259Z,99.90
2018-01-13T00:45:06.846Z,99.90
2018-01-13T00:47:34.435Z,99.90
2018-01-13T00:50:02.599Z,99.90
2018-01-13T00:52:30.155Z,99.90
2018-01-13T00:54:58.533Z,99.90
2018-01-13T00:57:26.900Z,99.90
2018-01-13T00:59:56.190Z,99.90
2018-01-13T01:02:23.749Z,99.90
2018-01-13T01:04:52.159Z,99.90
2018-01-13T01:07:20.472Z,99.90
2018-01-13T01:09:48.874Z,99.90
2018-01-13T01:12:18.220Z,99.90
2018-01-13T01:14:47.362Z,99.90
2018-01-13T01:17:14.901Z,99.90
2018-01-13T01:19:43.421Z,99.90
2018-01-13T01:22:11.824Z,99.90
2018-01-13T01:24:40.458Z,99.90
2018-01-13T01:27:08.577Z,99.90
2018-01-13T01:29:37.834Z,99.90
2018-01-13T01:32:07.123Z,99.90
2018-01-13T01:34:35.516Z,99.90
2018-01-13T01:37:03.948Z,99.90
2018-01-13T01:39:38.947Z,99.90
2018-01-13T01:42:08.218Z,99.90
2018-01-13T01:44:37.376Z,99.90
2018-01-13T01:47:07.772Z,99.90
2018-01-13T01:49:37.652Z,99.90
2018-01-13T01:52:05.220Z,99.90
2018-01-13T01:54:34.832Z,99.90
2018-01-13T01:57:02.385Z,99.90
2018-01-13T01:59:34.910Z,99.90
2018-01-13T02:02:03.028Z,99.90
2018-01-13T02:04:31.948Z,99.90
2018-01-13T02:07:00.260Z,99.90
2018-01-13T02:09:28.799Z,99.90
2018-01-13T02:11:56.430Z,99.90
2018-01-13T02:14:24.314Z,99.90
2018-01-13T02:16:51.853Z,99.90
2018-01-13T02:19:19.459Z,99.90
2018-01-13T02:21:48.456Z,99.90
2018-01-13T02:24:16.043Z,99.90
2018-01-13T02:26:46.439Z,99.90
2018-01-13T02:29:15.221Z,99.90
2018-01-13T02:31:43.458Z,99.90
2018-01-13T02:34:11.043Z,99.90
2018-01-13T02:36:38.620Z,99.90
2018-01-13T02:39:08.677Z,99.90
2018-01-13T02:41:36.899Z,99.90
2018-01-13T02:44:06.546Z,99.90
2018-01-13T02:46:34.118Z,99.90
2018-01-13T02:49:01.663Z,99.90
2018-01-13T02:51:30.853Z,99.90
2018-01-13T02:54:04.924Z,99.90
2018-01-13T02:56:32.514Z,99.90
2018-01-13T02:59:00.558Z,99.90
2018-01-13T03:01:28.932Z,99.90
2018-01-13T03:03:58.198Z,99.90
2018-01-13T03:06:25.795Z,99.90
2018-01-13T03:08:54.394Z,99.90
2018-01-13T03:11:22.916Z,99.90
2018-01-13T03:13:51.231Z,99.90
2018-01-13T03:16:19.606Z,99.90
2018-01-13T03:18:48.956Z,99.90
2018-01-13T03:21:16.497Z,99.90
2018-01-13T03:23:45.328Z,99.90
2018-01-13T03:26:13.807Z,99.90
2018-01-13T03:28:44.211Z,99.90
2018-01-13T03:31:11.867Z,99.90
2018-01-13T03:33:39.450Z,99.90
2018-01-13T03:36:15.031Z,99.90
2018-01-13T03:38:51.989Z,99.90
2018-01-13T03:41:20.423Z,99.90
2018-01-13T03:43:50.112Z,99.90
2018-01-13T03:46:18.678Z,99.90
2018-01-13T03:48:47.035Z,99.90
2018-01-13T03:51:16.075Z,99.90
2018-01-13T03:53:43.670Z,99.90
2018-01-13T03:56:11.210Z,99.90
2018-01-13T03:58:41.306Z,99.90
2018-01-13T04:01:09.577Z,99.90
2018-01-13T04:03:38.013Z,99.90
2018-01-13T04:06:07.259Z,99.90
2018-01-13T04:08:34.851Z,99.90
2018-01-13T04:11:02.399Z,99.90
2018-01-13T04:13:30.561Z,99.90
2018-01-13T04:15:58.103Z,99.90
2018-01-13T04:18:26.310Z,99.90
2018-01-13T04:20:56.425Z,99.90
2018-01-13T04:23:24.042Z,99.90
2018-01-13T04:25:51.618Z,99.90
2018-01-13T04:28:20.363Z,99.90
2018-01-13T04:30:48.659Z,99.90
2018-01-13T04:33:19.909Z,99.90
2018-01-13T04:35:48.351Z,99.90
2018-01-13T04:38:16.701Z,99.90
2018-01-13T04:40:44.274Z,99.90
2018-01-13T04:43:12.631Z,99.90
2018-01-13T04:45:41.203Z,99.90
2018-01-13T04:48:08.787Z,99.90
2018-01-13T04:50:36.331Z,99.90
2018-01-13T04:53:03.906Z,99.90
2018-01-13T04:55:32.015Z,99.90
2018-01-13T04:58:01.036Z,99.90
2018-01-13T05:00:28.594Z,99.90
2018-01-13T05:02:58.670Z,99.90
2018-01-13T05:05:26.225Z,99.90
2018-01-13T05:07:54.753Z,99.90
2018-01-13T05:10:25.744Z,99.90
2018-01-13T05:12:56.166Z,99.90
2018-01-13T05:15:23.713Z,99.90
2018-01-13T05:17:54.608Z,99.90
2018-01-13T05:20:23.731Z,99.90
2018-01-13T05:22:51.323Z,99.90
2018-01-13T05:25:19.776Z,99.90
2018-01-13T05:27:49.705Z,99.90
2018-01-13T05:30:19.264Z,99.90
2018-01-13T05:32:47.710Z,99.90
2018-01-13T05:35:16.373Z,99.90
2018-01-13T05:37:43.963Z,99.90
2018-01-13T05:40:11.518Z,99.90
2018-01-13T05:42:40.911Z,99.90
2018-01-13T05:45:09.886Z,99.90
2018-01-13T05:47:38.260Z,99.90
2018-01-13T05:50:05.807Z,99.90
2018-01-13T05:52:34.344Z,99.90
2018-01-13T05:55:02.723Z,99.90
2018-01-13T05:57:31.110Z,99.90
2018-01-13T06:00:01.412Z,99.90
2018-01-13T06:02:28.999Z,99.90
2018-01-13T06:04:56.548Z,99.90
2018-01-13T06:07:25.875Z,99.90
2018-01-13T06:09:54.134Z,99.90
2018-01-13T06:12:22.489Z,99.90
2018-01-13T06:14:50.946Z,99.90
2018-01-13T06:17:19.693Z,99.90
2018-01-13T06:19:50.183Z,99.90
2018-01-13T06:22:21.046Z,99.90
2018-01-13T06:24:49.676Z,99.90
2018-01-13T06:27:19.064Z,99.90
2018-01-13T06:29:53.412Z,99.90
2018-01-13T06:32:22.597Z,99.90
2018-01-13T06:34:50.206Z,99.90
2018-01-13T06:37:20.731Z,99.90
2018-01-13T06:39:48.747Z,99.90
2018-01-13T06:42:17.183Z,99.90
2018-01-13T06:44:47.407Z,99.90
2018-01-13T06:47:16.956Z,99.90
2018-01-13T06:49:45.286Z,99.90
2018-01-13T06:52:14.242Z,99.90
2018-01-13T06:54:42.680Z,99.90
2018-01-13T06:57:13.468Z,99.90
2018-01-13T06:59:40.998Z,99.90
2018-01-13T07:02:08.620Z,99.90
2018-01-13T07:04:37.563Z,99.90
2018-01-13T07:07:06.295Z,99.90
2018-01-13T07:09:37.775Z,99.90
2018-01-13T07:12:13.920Z,99.90
2018-01-13T07:14:44.896Z,99.90
2018-01-13T07:17:13.235Z,99.90
2018-01-13T07:19:41.887Z,99.90
2018-01-13T07:22:12.345Z,99.90
2018-01-13T07:24:40.776Z,99.90
2018-01-13T07:27:10.818Z,99.90
2018-01-13T07:29:38.986Z,99.90
2018-01-13T07:32:07.561Z,99.90
2018-01-13T07:34:37.975Z,99.90
2018-01-13T07:37:08.716Z,99.90
2018-01-13T07:39:36.261Z,99.90
2018-01-13T07:42:03.844Z,99.90
2018-01-13T07:44:31.409Z,99.90
2018-01-13T07:46:59.819Z,99.90
2018-01-13T07:49:30.231Z,99.90
2018-01-13T07:51:58.414Z,99.90
2018-01-13T07:54:25.947Z,99.90
2018-01-13T07:56:54.292Z,99.10
2018-01-13T07:59:22.536Z,99.10
2018-01-13T08:01:51.060Z,98.70
2018-01-13T08:04:18.613Z,99.10
2018-01-13T08:06:46.193Z,98.20
2018-01-13T08:09:15.080Z,98.40
2018-01-13T08:11:43.995Z,98.40
2018-01-13T08:14:11.535Z,97.80
2018-01-13T08:16:40.412Z,98.90
2018-01-13T08:19:08.820Z,98.50
2018-01-13T08:21:37.095Z,98.70
2018-01-13T08:24:04.628Z,97.60
2018-01-13T08:26:33.110Z,97.30
2018-01-13T08:29:02.158Z,98.40
2018-01-13T08:31:29.737Z,98.40
2018-01-13T08:33:59.948Z,97.90
2018-01-13T08:36:28.374Z,97.30
2018-01-13T08:38:55.905Z,96.60
2018-01-13T08:41:24.222Z,96.30
2018-01-13T08:43:51.754Z,96.70
2018-01-13T08:46:21.041Z,95.70
2018-01-13T08:48:49.319Z,95.70
2018-01-13T08:51:16.895Z,95.40
2018-01-13T08:53:46.175Z,95.60
2018-01-13T08:56:13.810Z,95.60
2018-01-13T08:58:44.631Z,94.60
2018-01-13T09:01:13.386Z,94.60
2018-01-13T09:03:43.820Z,93.50
2018-01-13T09:06:13.901Z,93.00
2018-01-13T09:08:45.419Z,92.80
2018-01-13T09:11:13.304Z,92.60
2018-01-13T09:13:41.562Z,91.80
2018-01-13T09:16:10.247Z,91.20
2018-01-13T09:18:39.613Z,90.80
2018-01-13T09:21:07.414Z,90.90
2018-01-13T09:23:35.389Z,89.80
2018-01-13T09:26:03.057Z,89.10
2018-01-13T09:28:30.605Z,88.60
2018-01-13T09:30:58.200Z,88.30
2018-01-13T09:33:25.760Z,87.80
2018-01-13T09:35:56.572Z,87.80
2018-01-13T09:38:24.246Z,90.20
2018-01-13T09:40:53.430Z,90.80
2018-01-13T09:43:20.985Z,90.30
2018-01-13T09:45:48.590Z,90.90
2018-01-13T09:48:17.037Z,91.00
2018-01-13T09:50:45.182Z,92.00
2018-01-13T09:53:12.719Z,92.20
2018-01-13T09:55:41.336Z,91.50
2018-01-13T09:58:10.652Z,92.40
2018-01-13T10:00:38.226Z,92.30
2018-01-13T10:03:05.768Z,90.40
2018-01-13T10:05:33.406Z,90.30
2018-01-13T10:08:01.777Z,93.30
2018-01-13T10:10:29.425Z,93.20
2018-01-13T10:12:56.959Z,92.50
2018-01-13T10:15:24.547Z,90.60
2018-01-13T10:17:53.628Z,90.00
2018-01-13T10:20:21.200Z,85.90
2018-01-13T10:22:50.266Z,84.70
2018-01-13T10:25:17.852Z,84.60
2018-01-13T10:27:45.825Z,84.10
2018-01-13T10:30:13.411Z,82.60
2018-01-13T10:32:42.024Z,81.30
2018-01-13T10:35:10.313Z,81.30
2018-01-13T10:37:38.397Z,80.20
2018-01-13T10:40:06.032Z,79.80
2018-01-13T10:42:33.571Z,78.50
2018-01-13T10:45:02.742Z,76.50
2018-01-13T10:47:31.656Z,76.40
2018-01-13T10:50:00.106Z,76.30
2018-01-13T10:52:28.207Z,75.00
2018-01-13T10:54:55.775Z,74.50
2018-01-13T10:57:27.918Z,71.80
2018-01-13T10:59:56.270Z,71.90
2018-01-13T11:02:25.954Z,71.90
2018-01-13T11:04:54.593Z,72.20
2018-01-13T11:07:23.408Z,71.20
2018-01-13T11:09:51.669Z,70.10
2018-01-13T11:12:19.246Z,70.10
2018-01-13T11:14:48.194Z,70.10
2018-01-13T11:17:16.394Z,68.60
2018-01-13T11:19:44.797Z,67.80
2018-01-13T11:22:12.353Z,66.70
2018-01-13T11:24:42.179Z,65.40
2018-01-13T11:27:11.307Z,64.70
2018-01-13T11:29:38.923Z,64.80
2018-01-13T11:32:06.464Z,63.00
2018-01-13T11:34:34.035Z,62.50
2018-01-13T11:37:02.255Z,62.40
2018-01-13T11:39:30.686Z,62.60
2018-01-13T11:41:58.237Z,63.50
2018-01-13T11:44:26.764Z,62.30
2018-01-13T11:46:54.347Z,61.80
2018-01-13T11:49:23.502Z,62.20
2018-01-13T11:51:51.994Z,62.30
2018-01-13T11:54:20.986Z,60.70
2018-01-13T11:56:48.531Z,61.50
2018-01-13T11:59:16.576Z,59.80
2018-01-13T12:01:44.109Z,60.80
2018-01-13T12:04:11.643Z,62.70
2018-01-13T12:06:39.984Z,62.00
2018-01-13T12:09:07.514Z,61.90
2018-01-13T12:11:36.831Z,62.90
2018-01-13T12:14:05.138Z,62.70
2018-01-13T12:16:33.478Z,59.90
2018-01-13T12:19:01.578Z,59.90
2018-01-13T12:21:29.597Z,61.10
2018-01-13T12:23:57.547Z,62.80
2018-01-13T12:26:25.926Z,63.00
2018-01-13T12:28:54.150Z,62.90
2018-01-13T12:31:22.448Z,63.60
2018-01-13T12:33:50.833Z,64.60
2018-01-13T12:36:19.601Z,66.00
2018-01-13T12:38:47.127Z,64.60
2018-01-13T12:41:15.454Z,64.30
2018-01-13T12:43:43.519Z,65.70
2018-01-13T12:46:11.916Z,64.50
2018-01-13T12:48:40.244Z,66.20
2018-01-13T12:51:08.583Z,66.80
2018-01-13T12:53:36.949Z,66.70
2018-01-13T12:56:05.334Z,66.20
2018-01-13T12:58:34.183Z,64.70
2018-01-13T13:01:02.571Z,64.70
2018-01-13T13:03:30.102Z,65.00
2018-01-13T13:05:57.980Z,65.90
2018-01-13T13:08:26.379Z,72.10
2018-01-13T13:10:55.643Z,73.70
2018-01-13T13:13:23.854Z,76.60
2018-01-13T13:15:52.275Z,77.30
2018-01-13T13:18:21.338Z,76.80
2018-01-13T13:20:48.919Z,75.40
2018-01-13T13:23:16.464Z,76.20
2018-01-13T13:25:44.983Z,77.40
2018-01-13T13:28:13.423Z,75.40
2018-01-13T13:30:41.932Z,75.00
2018-01-13T13:33:10.006Z,75.90
2018-01-13T13:35:37.584Z,76.70
2018-01-13T13:38:05.169Z,77.80
2018-01-13T13:40:32.769Z,78.00
2018-01-13T13:43:00.909Z,75.90
2018-01-13T13:45:28.488Z,74.30
2018-01-13T13:47:56.969Z,77.60
2018-01-13T13:50:25.360Z,79.70
2018-01-13T13:52:52.899Z,78.60
2018-01-13T13:55:22.796Z,81.70
2018-01-13T13:57:50.466Z,81.60
2018-01-13T14:00:18.039Z,82.70
2018-01-13T14:02:46.373Z,82.90
2018-01-13T14:05:14.851Z,84.00
2018-01-13T14:07:44.064Z,84.10
2018-01-13T14:10:12.347Z,84.30
2018-01-13T14:12:39.883Z,86.50
2018-01-13T14:15:08.401Z,87.10
2018-01-13T14:17:35.923Z,85.90
2018-01-13T14:20:05.461Z,85.50
2018-01-13T14:22:34.766Z,85.40
2018-01-13T14:25:03.130Z,88.50
2018-01-13T14:27:33.336Z,88.50
2018-01-13T14:30:03.773Z,88.90
2018-01-13T14:32:32.094Z,87.90
2018-01-13T14:34:59.695Z,90.20
2018-01-13T14:37:28.975Z,90.70
2018-01-13T14:39:57.497Z,91.40
2018-01-13T14:42:27.310Z,90.80
2018-01-13T14:44:54.889Z,90.80
2018-01-13T14:47:22.425Z,91.10
2018-01-13T14:49:50.035Z,91.80
2018-01-13T14:52:17.737Z,92.00
2018-01-13T14:54:46.162Z,91.60
2018-01-13T14:57:13.694Z,92.00
2018-01-13T14:59:42.034Z,92.70
2018-01-13T15:02:11.134Z,92.70
2018-01-13T15:04:39.267Z,92.10
2018-01-13T15:07:06.996Z,92.00
2018-01-13T15:09:36.359Z,92.00
2018-01-13T15:12:04.703Z,91.90
2018-01-13T15:14:33.457Z,92.40
2018-01-13T15:17:02.538Z,93.10
2018-01-13T15:19:31.986Z,93.00
2018-01-13T15:22:01.243Z,93.40
2018-01-13T15:24:28.907Z,93.40
2018-01-13T15:26:57.259Z,93.70
2018-01-13T15:29:25.624Z,93.60
2018-01-13T15:31:53.950Z,93.70
2018-01-13T15:34:22.758Z,94.20
2018-01-13T15:36:51.073Z,94.30
2018-01-13T15:39:19.113Z,94.30
2018-01-13T15:41:47.054Z,94.40
2018-01-13T15:44:15.214Z,94.00
2018-01-13T15:46:43.370Z,94.20
2018-01-13T15:49:10.902Z,94.40
2018-01-13T15:51:38.528Z,94.70
2018-01-13T15:54:07.716Z,95.30
2018-01-13T15:56:36.010Z,95.30
2018-01-13T15:59:04.531Z,95.30
2018-01-13T16:01:35.581Z,95.30
2018-01-13T16:04:03.924Z,95.30
2018-01-13T16:06:31.476Z,95.40
2018-01-13T16:09:01.695Z,95.50
2018-01-13T16:11:29.944Z,95.80
2018-01-13T16:13:57.520Z,96.00
2018-01-13T16:16:25.978Z,96.00
2018-01-13T16:18:54.521Z,96.40
2018-01-13T16:21:22.156Z,96.20
2018-01-13T16:23:49.711Z,96.20
2018-01-13T16:26:17.337Z,96.10
2018-01-13T16:28:44.912Z,96.40
2018-01-13T16:31:12.510Z,96.20
2018-01-13T16:33:41.278Z,96.20
2018-01-13T16:36:08.867Z,96.20
2018-01-13T16:38:36.934Z,96.10
2018-01-13T16:41:04.528Z,96.20
2018-01-13T16:43:32.072Z,96.30
2018-01-13T16:46:00.198Z,96.60
2018-01-13T16:48:28.501Z,96.70
2018-01-13T16:50:57.471Z,96.60
2018-01-13T16:53:26.298Z,96.60
2018-01-13T16:55:55.795Z,96.30
2018-01-13T16:58:25.081Z,96.30
2018-01-13T17:00:54.697Z,96.50
2018-01-13T17:03:22.836Z,96.40
2018-01-13T17:06:00.083Z,97.10
2018-01-13T17:08:28.821Z,97.00
2018-01-13T17:10:56.872Z,96.80
2018-01-13T17:13:24.398Z,97.00
2018-01-13T17:15:53.665Z,96.80
2018-01-13T17:18:22.061Z,96.80
2018-01-13T17:20:49.637Z,97.00
2018-01-13T17:23:17.168Z,97.20
2018-01-13T17:25:45.485Z,97.30
2018-01-13T17:28:13.023Z,97.60
2018-01-13T17:30:41.372Z,97.60
2018-01-13T17:33:09.758Z,97.50
2018-01-13T17:35:37.342Z,97.80
2018-01-13T17:38:05.906Z,98.00
2018-01-13T17:40:33.546Z,98.00
2018-01-13T17:43:02.762Z,98.20
2018-01-13T17:45:31.170Z,98.20
2018-01-13T17:47:58.711Z,98.20
2018-01-13T17:50:27.378Z,98.60
2018-01-13T17:52:54.909Z,98.60
2018-01-13T17:55:22.470Z,98.50
2018-01-13T17:57:51.964Z,98.20
2018-01-13T18:00:21.339Z,98.20
2018-01-13T18:02:49.698Z,98.20
2018-01-13T18:05:18.088Z,98.40
2018-01-13T18:07:47.093Z,98.50
2018-01-13T18:10:15.433Z,98.80
2018-01-13T18:12:44.128Z,98.70
2018-01-13T18:15:13.377Z,99.10
2018-01-13T18:17:41.605Z,99.10
2018-01-13T18:20:09.178Z,98.60
2018-01-13T18:22:36.734Z,98.50
2018-01-13T18:25:05.133Z,98.40
2018-01-13T18:27:32.716Z,98.40
2018-01-13T18:30:03.144Z,98.60
2018-01-13T18:32:30.745Z,98.60
2018-01-13T18:34:59.304Z,98.60
2018-01-13T18:37:28.633Z,99.10
2018-01-13T18:39:57.248Z,99.10
2018-01-13T18:42:24.981Z,98.90
2018-01-13T18:44:53.319Z,98.90
2018-01-13T18:47:23.424Z,98.90
2018-01-13T18:49:51.898Z,99.00
2018-01-13T18:52:28.909Z,99.20
2018-01-13T18:55:02.211Z,99.50
2018-01-13T18:57:32.211Z,98.90
2018-01-13T18:59:59.848Z,98.90
2018-01-13T19:02:27.430Z,99.00
2018-01-13T19:04:55.061Z,99.20
2018-01-13T19:07:23.396Z,99.40
2018-01-13T19:09:51.012Z,99.00
2018-01-13T19:12:19.824Z,99.00
2018-01-13T19:14:48.501Z,99.00
2018-01-13T19:17:16.059Z,99.10
2018-01-13T19:19:43.654Z,99.20
2018-01-13T19:22:11.214Z,99.50
2018-01-13T19:24:40.358Z,99.00
2018-01-13T19:27:08.221Z,99.00
2018-01-13T19:29:37.394Z,98.60
2018-01-13T19:32:06.082Z,98.80
2018-01-13T19:34:33.688Z,99.10
2018-01-13T19:37:02.448Z,99.80
2018-01-13T19:39:33.294Z,99.40
2018-01-13T19:42:01.804Z,99.40
2018-01-13T19:44:29.435Z,99.10
2018-01-13T19:46:58.202Z,99.30
2018-01-13T19:49:25.832Z,99.30
2018-01-13T19:51:54.296Z,99.50
2018-01-13T19:54:21.941Z,99.20
2018-01-13T19:56:50.099Z,99.00
2018-01-13T19:59:18.450Z,99.00
2018-01-13T20:01:46.595Z,99.10
2018-01-13T20:04:14.941Z,99.20
2018-01-13T20:06:44.339Z,99.30
2018-01-13T20:09:13.855Z,99.90
2018-01-13T20:11:41.469Z,99.90
2018-01-13T20:14:11.667Z,99.90
2018-01-13T20:16:40.054Z,99.90
2018-01-13T20:19:07.677Z,99.90
2018-01-13T20:21:38.692Z,99.90
2018-01-13T20:24:07.126Z,99.90
2018-01-13T20:26:35.895Z,99.80
2018-01-13T20:29:04.937Z,99.90
2018-01-13T20:31:33.313Z,99.90
2018-01-13T20:34:01.987Z,99.90
2018-01-13T20:36:30.175Z,99.90
2018-01-13T20:38:57.789Z,99.90
2018-01-13T20:41:26.849Z,99.90
2018-01-13T20:43:57.120Z,99.90
2018-01-13T20:46:25.481Z,99.90
2018-01-13T20:48:53.110Z,99.90
2018-01-13T20:51:21.655Z,99.90
2018-01-13T20:53:50.108Z,99.90
2018-01-13T20:56:17.696Z,99.90
2018-01-13T20:58:46.674Z,99.90
2018-01-13T21:01:15.082Z,99.90
2018-01-13T21:03:44.409Z,99.90
2018-01-13T21:06:11.953Z,99.90
2018-01-13T21:08:41.038Z,99.90
2018-01-13T21:11:10.570Z,99.90
2018-01-13T21:13:39.653Z,99.90
2018-01-13T21:16:08.175Z,99.90
2018-01-13T21:18:37.961Z,99.90
2018-01-13T21:21:06.781Z,99.90
2018-01-13T21:23:34.363Z,99.90
2018-01-13T21:26:04.410Z,99.90
2018-01-13T21:28:34.775Z,99.90
2018-01-13T21:31:02.423Z,99.90
2018-01-13T21:33:31.281Z,99.90
2018-01-13T21:35:58.930Z,99.90
2018-01-13T21:38:27.405Z,99.90
2018-01-13T21:40:56.063Z,99.90
2018-01-13T21:43:23.636Z,99.90
2018-01-13T21:45:52.198Z,99.90
2018-01-13T21:48:20.522Z,99.90
2018-01-13T21:50:48.546Z,99.90
2018-01-13T21:53:17.086Z,99.90
2018-01-13T21:55:45.564Z,99.90
2018-01-13T21:58:13.145Z,99.90
2018-01-13T22:00:40.798Z,99.90
2018-01-13T22:03:08.401Z,99.90
2018-01-13T22:05:37.560Z,99.90
2018-01-13T22:08:06.713Z,99.90
2018-01-13T22:10:35.030Z,99.90
2018-01-13T22:13:02.625Z,99.90
2018-01-13T22:15:35.162Z,99.90
2018-01-13T22:18:03.699Z,99.90
2018-01-13T22:20:32.102Z,99.90
2018-01-13T22:23:00.484Z,99.90
2018-01-13T22:25:28.927Z,99.90
2018-01-13T22:27:57.370Z,99.90
2018-01-13T22:30:29.212Z,99.90
2018-01-13T22:33:01.504Z,99.90
2018-01-13T22:35:29.895Z,99.90
2018-01-13T22:37:58.216Z,99.90
2018-01-13T22:40:25.830Z,99.90
2018-01-13T22:42:54.121Z,99.90
2018-01-13T22:45:21.770Z,99.90
2018-01-13T22:47:50.102Z,99.90
2018-01-13T22:50:17.686Z,99.90
2018-01-13T22:52:46.920Z,99.90
2018-01-13T22:55:16.343Z,99.90
2018-01-13T22:57:43.962Z,99.90
2018-01-13T23:00:15.593Z,99.90
2018-01-13T23:02:43.131Z,99.90
2018-01-13T23:05:12.288Z,99.90
2018-01-13T23:07:42.177Z,99.90
2018-01-13T23:10:11.431Z,99.90
2018-01-13T23:12:39.773Z,99.90
2018-01-13T23:15:09.969Z,99.90
2018-01-13T23:17:37.558Z,99.90
2018-01-13T23:20:05.675Z,99.90
2018-01-13T23:22:34.382Z,99.90
2018-01-13T23:25:04.044Z,99.90
2018-01-13T23:27:32.351Z,99.90
2018-01-13T23:30:03.522Z,99.90
2018-01-13T23:32:31.050Z,99.90
2018-01-13T23:35:00.026Z,99.90
2018-01-13T23:37:27.582Z,99.90
2018-01-13T23:39:55.174Z,99.90
2018-01-13T23:42:24.062Z,99.90
2018-01-13T23:44:53.056Z,99.90
2018-01-13T23:47:21.485Z,99.90
2018-01-13T23:49:51.412Z,99.90
2018-01-13T23:52:21.678Z,99.90
2018-01-13T23:54:50.084Z,99.90
2018-01-13T23:57:18.919Z,99.90
2018-01-13T23:59:53.062Z,99.90
